Time;durP1;ratioP1;P1;durP2;ratioP2;P2;SDS_P1;SDS_P2;PMS_P1;PMS_P2;Temp;Humidity;BMP_temperature;BMP_pressure;BME280_temperature;BME280_humidity;BME280_pressure;Samples;Min_cycle;Max_cycle;Signal;HPM_P1;HPM_P2
2024/04/25 00:00:51;;;;;;;14.38;10.50;;;4.90;99.90;;;;;;5498027;26;20285;-63
2024/04/25 00:03:22;;;;;;;11.23;9.10;;;4.90;99.90;;;;;;5497536;26;20239;-62
2024/04/25 00:05:51;;;;;;;12.27;10.00;;;5.00;99.90;;;;;;5493423;26;20487;-61
2024/04/25 00:08:19;;;;;;;13.25;10.15;;;4.90;99.90;;;;;;5490439;26;20223;-62
2024/04/25 00:10:52;;;;;;;11.52;9.85;;;5.00;99.90;;;;;;5490530;26;20331;-62
2024/04/25 00:13:25;;;;;;;12.70;10.93;;;5.00;99.90;;;;;;5489966;26;20335;-62
2024/04/25 00:15:54;;;;;;;12.85;11.50;;;5.00;99.90;;;;;;5489943;26;20241;-61
2024/04/25 00:18:26;;;;;;;13.55;10.82;;;5.00;99.90;;;;;;5489839;26;20263;-61
2024/04/25 00:20:54;;;;;;;14.15;11.45;;;5.00;99.90;;;;;;5490238;26;20274;-62
2024/04/25 00:23:22;;;;;;;13.60;11.02;;;5.00;99.90;;;;;;5490276;26;20315;-61
2024/04/25 00:25:51;;;;;;;14.07;12.45;;;5.00;99.90;;;;;;5489848;26;20213;-61
2024/04/25 00:28:19;;;;;;;18.17;12.77;;;5.00;99.90;;;;;;5490151;26;20329;-62
2024/04/25 00:30:49;;;;;;;18.15;13.32;;;5.00;99.90;;;;;;5493899;26;20232;-62
2024/04/25 00:33:18;;;;;;;17.77;12.50;;;5.00;99.90;;;;;;5493255;26;20228;-63
2024/04/25 00:35:49;;;;;;;17.45;12.50;;;5.00;99.90;;;;;;5493183;26;20270;-63
2024/04/25 00:38:17;;;;;;;15.88;12.48;;;5.00;99.90;;;;;;5493082;26;20211;-61
2024/04/25 00:40:46;;;;;;;15.63;12.55;;;5.00;99.90;;;;;;5493026;26;20226;-61
2024/04/25 00:43:15;;;;;;;16.63;12.32;;;5.00;99.90;;;;;;5492717;26;20262;-61
2024/04/25 00:45:43;;;;;;;17.83;13.55;;;5.00;99.90;;;;;;5492596;26;20304;-61
2024/04/25 00:48:12;;;;;;;18.13;12.60;;;5.00;99.90;;;;;;5492458;26;20320;-63
2024/04/25 00:50:41;;;;;;;18.40;12.60;;;5.10;99.90;;;;;;5492681;26;20754;-61
2024/04/25 00:53:12;;;;;;;17.40;14.07;;;5.00;99.90;;;;;;5493298;26;20271;-62
2024/04/25 00:55:41;;;;;;;16.55;13.70;;;5.00;99.90;;;;;;5492787;26;20218;-62
2024/04/25 00:58:12;;;;;;;16.27;13.48;;;5.00;99.90;;;;;;5493130;26;20210;-61
2024/04/25 01:00:44;;;;;;;17.15;13.30;;;5.00;99.90;;;;;;5494169;26;20223;-62
2024/04/25 01:03:14;;;;;;;17.05;14.00;;;5.00;99.90;;;;;;5492894;26;20693;-62
2024/04/25 01:05:44;;;;;;;17.10;13.02;;;5.00;99.90;;;;;;5492437;26;20801;-63
2024/04/25 01:08:15;;;;;;;16.55;13.25;;;5.10;99.90;;;;;;5492757;26;20209;-62
2024/04/25 01:10:44;;;;;;;17.35;13.73;;;5.00;99.90;;;;;;5492634;26;20304;-63
2024/04/25 01:13:12;;;;;;;17.58;14.05;;;5.00;99.90;;;;;;5492728;26;20276;-62
2024/04/25 01:15:41;;;;;;;17.08;13.50;;;5.10;99.90;;;;;;5493216;26;20259;-61
2024/04/25 01:18:09;;;;;;;16.95;12.82;;;5.10;99.90;;;;;;5493131;26;20345;-62
2024/04/25 01:20:38;;;;;;;16.30;13.10;;;5.10;99.90;;;;;;5496098;26;20224;-62
2024/04/25 01:23:11;;;;;;;17.60;13.35;;;5.10;99.90;;;;;;5498557;26;20645;-62
2024/04/25 01:25:44;;;;;;;19.05;14.70;;;5.00;99.90;;;;;;5494030;26;20210;-61
2024/04/25 01:28:15;;;;;;;19.10;12.82;;;5.10;99.90;;;;;;5493335;26;20596;-61
2024/04/25 01:30:47;;;;;;;16.88;13.55;;;5.00;99.90;;;;;;5494153;26;20744;-61
2024/04/25 01:33:17;;;;;;;15.93;12.55;;;5.00;99.90;;;;;;5494103;26;20267;-61
2024/04/25 01:35:47;;;;;;;17.10;13.68;;;5.00;99.90;;;;;;5494385;26;20212;-62
2024/04/25 01:38:16;;;;;;;13.32;11.93;;;5.00;99.90;;;;;;5495246;26;20204;-61
2024/04/25 01:40:47;;;;;;;17.45;13.55;;;4.90;99.90;;;;;;5492521;26;20216;-60
2024/04/25 01:43:15;;;;;;;16.20;12.10;;;4.90;99.90;;;;;;5492721;26;20277;-61
2024/04/25 01:45:44;;;;;;;14.32;11.48;;;4.80;99.90;;;;;;5492700;26;20322;-62
2024/04/25 01:48:12;;;;;;;13.90;11.02;;;4.80;99.90;;;;;;5492407;26;20643;-62
2024/04/25 01:50:40;;;;;;;15.80;12.80;;;4.80;99.90;;;;;;5492163;26;20266;-62
2024/04/25 01:53:09;;;;;;;15.73;12.20;;;4.80;99.90;;;;;;5492509;26;20337;-63
2024/04/25 01:55:37;;;;;;;16.70;12.63;;;4.80;99.90;;;;;;5492750;26;20246;-62
2024/04/25 01:58:06;;;;;;;16.08;12.20;;;4.80;99.90;;;;;;5492487;26;20271;-62
2024/04/25 02:00:35;;;;;;;17.15;11.35;;;4.80;99.90;;;;;;5492487;26;20212;-62
2024/04/25 02:03:03;;;;;;;15.07;11.93;;;4.80;99.90;;;;;;5493158;26;20226;-63
2024/04/25 02:05:32;;;;;;;12.88;10.75;;;4.80;99.90;;;;;;5492640;26;20219;-62
2024/04/25 02:08:00;;;;;;;11.23;9.13;;;4.80;99.90;;;;;;5492291;26;20216;-62
2024/04/25 02:10:28;;;;;;;13.05;9.43;;;4.70;99.90;;;;;;5492083;26;20262;-62
2024/04/25 02:12:57;;;;;;;10.93;9.25;;;4.70;99.90;;;;;;5492720;26;20277;-62
2024/04/25 02:15:28;;;;;;;11.85;9.18;;;4.70;99.90;;;;;;5492210;26;20285;-62
2024/04/25 02:17:56;;;;;;;13.98;10.10;;;4.70;99.90;;;;;;5492851;26;20872;-62
2024/04/25 02:25:53;;;;;;;11.75;9.07;;;4.60;99.90;;;;;;5499016;26;20202;-62
2024/04/25 02:28:21;;;;;;;14.23;9.60;;;4.60;99.90;;;;;;5493572;26;20211;-62
2024/04/25 02:30:53;;;;;;;14.68;9.85;;;4.60;99.90;;;;;;5493207;26;20831;-62
2024/04/25 02:33:21;;;;;;;13.38;10.05;;;4.60;99.90;;;;;;5492326;26;20337;-61
2024/04/25 02:35:49;;;;;;;14.25;10.77;;;4.60;99.90;;;;;;5491908;26;20315;-61
2024/04/25 02:38:18;;;;;;;13.50;9.80;;;4.60;99.90;;;;;;5492383;26;20255;-61
2024/04/25 02:40:46;;;;;;;14.10;9.23;;;4.60;99.90;;;;;;5491536;26;20270;-62
2024/04/25 02:43:15;;;;;;;13.45;9.48;;;4.60;99.90;;;;;;5491388;26;20224;-61
2024/04/25 02:45:41;;;;;;;17.52;10.82;;;4.60;99.90;;;;;;5491225;26;20609;-62
2024/04/25 02:48:12;;;;;;;12.97;10.00;;;4.60;99.90;;;;;;5490992;26;20219;-61
2024/04/25 02:50:38;;;;;;;10.77;9.18;;;4.60;99.90;;;;;;5491131;26;20795;-62
2024/04/25 02:53:06;;;;;;;12.57;9.20;;;4.60;99.90;;;;;;5489445;26;20228;-62
2024/04/25 02:55:32;;;;;;;12.32;9.10;;;4.50;99.90;;;;;;5491607;26;20271;-62
2024/04/25 02:58:00;;;;;;;12.10;8.50;;;4.50;99.90;;;;;;5491358;26;20785;-62
2024/04/25 03:00:26;;;;;;;15.00;8.15;;;4.50;99.90;;;;;;5491439;26;20856;-62
2024/04/25 03:02:55;;;;;;;10.47;8.07;;;4.50;99.90;;;;;;5490875;26;20299;-62
2024/04/25 03:05:26;;;;;;;10.48;8.27;;;4.40;99.90;;;;;;5490522;26;20337;-62
2024/04/25 03:07:51;;;;;;;13.05;8.85;;;4.40;99.90;;;;;;5495818;26;20202;-62
2024/04/25 03:10:20;;;;;;;13.30;8.30;;;4.40;99.90;;;;;;5491546;26;20222;-61
2024/04/25 03:12:45;;;;;;;13.02;8.45;;;4.40;99.90;;;;;;5491980;26;20225;-61
2024/04/25 03:15:14;;;;;;;10.20;7.87;;;4.40;99.90;;;;;;5492290;26;20219;-61
2024/04/25 03:17:40;;;;;;;12.27;9.07;;;4.30;99.90;;;;;;5494872;26;20752;-62
2024/04/25 03:20:09;;;;;;;12.37;7.47;;;4.30;99.90;;;;;;5498017;26;20221;-62
2024/04/25 03:22:38;;;;;;;11.95;7.90;;;4.30;99.90;;;;;;5497173;26;20222;-63
2024/04/25 03:25:06;;;;;;;11.55;8.70;;;4.30;99.90;;;;;;5493397;26;20211;-62
2024/04/25 03:27:32;;;;;;;12.20;8.60;;;4.30;99.90;;;;;;5495343;26;20263;-62
2024/04/25 03:30:01;;;;;;;13.60;8.00;;;4.30;99.90;;;;;;5492380;26;20256;-62
2024/04/25 03:32:29;;;;;;;14.93;8.20;;;4.30;99.90;;;;;;5492583;26;20338;-62
2024/04/25 03:34:55;;;;;;;12.98;8.55;;;4.30;99.90;;;;;;5493113;26;20214;-62
2024/04/25 03:37:24;;;;;;;11.70;8.10;;;4.30;99.90;;;;;;5492725;26;20254;-63
2024/04/25 03:39:55;;;;;;;11.02;7.35;;;4.30;99.90;;;;;;5490381;26;20333;-62
2024/04/25 03:42:24;;;;;;;9.63;7.88;;;4.20;99.90;;;;;;5490488;26;20330;-61
2024/04/25 03:44:53;;;;;;;16.73;8.55;;;4.20;99.90;;;;;;5490521;26;20305;-61
2024/04/25 03:47:21;;;;;;;11.55;7.43;;;4.20;99.90;;;;;;5490400;26;20216;-62
2024/04/25 03:49:50;;;;;;;10.38;7.47;;;4.20;99.90;;;;;;5490558;26;20215;-62
2024/04/25 03:52:18;;;;;;;15.48;7.72;;;4.20;99.90;;;;;;5490458;26;20769;-63
2024/04/25 03:54:46;;;;;;;8.32;7.47;;;4.20;99.90;;;;;;5490166;26;20216;-63
2024/04/25 03:57:18;;;;;;;9.68;7.03;;;4.10;99.90;;;;;;5490618;26;20669;-63
2024/04/25 03:59:46;;;;;;;11.25;7.50;;;4.10;99.90;;;;;;5491204;26;20207;-62
2024/04/25 04:02:15;;;;;;;13.77;8.10;;;4.10;99.90;;;;;;5491323;26;20265;-63
2024/04/25 04:04:43;;;;;;;11.77;7.72;;;4.10;99.90;;;;;;5491134;26;20254;-62
2024/04/25 04:07:12;;;;;;;17.67;7.85;;;4.10;99.90;;;;;;5491854;26;20743;-61
2024/04/25 04:09:40;;;;;;;13.40;7.68;;;4.10;99.90;;;;;;5491319;26;20275;-62
2024/04/25 04:13:38;;;;;;;9.70;7.40;;;4.00;99.90;;;;;;5510472;25;20594;-61
2024/04/25 04:16:09;;;;;;;12.10;8.15;;;4.00;99.90;;;;;;5474101;26;20243;-62
2024/04/25 04:18:38;;;;;;;11.63;7.97;;;4.00;99.90;;;;;;5474224;26;20204;-63
2024/04/25 04:21:07;;;;;;;11.32;7.15;;;4.00;99.90;;;;;;5474008;26;20268;-62
2024/04/25 04:23:35;;;;;;;11.75;7.10;;;4.00;99.90;;;;;;5476009;26;20331;-62
2024/04/25 04:26:03;;;;;;;10.15;6.65;;;4.00;99.90;;;;;;5476545;26;20223;-62
2024/04/25 04:28:32;;;;;;;10.68;8.23;;;4.00;99.90;;;;;;5474824;26;20225;-61
2024/04/25 04:31:03;;;;;;;12.73;8.10;;;4.00;99.90;;;;;;5474062;26;20268;-62
2024/04/25 04:33:34;;;;;;;10.88;7.65;;;4.00;99.90;;;;;;5473809;26;20838;-60
2024/04/25 04:36:02;;;;;;;12.23;7.85;;;4.00;99.90;;;;;;5474203;26;20241;-62
2024/04/25 04:38:33;;;;;;;10.25;7.90;;;4.00;99.90;;;;;;5473007;26;20214;-61
2024/04/25 04:41:02;;;;;;;9.30;6.25;;;4.10;99.90;;;;;;5479340;26;20226;-63
2024/04/25 04:43:30;;;;;;;11.02;7.32;;;4.10;99.90;;;;;;5484002;26;20259;-61
2024/04/25 04:46:01;;;;;;;9.00;7.53;;;4.10;99.90;;;;;;5483834;26;20215;-61
2024/04/25 04:48:32;;;;;;;10.35;7.72;;;4.10;99.90;;;;;;5478461;26;20249;-61
2024/04/25 04:51:01;;;;;;;11.05;7.68;;;4.10;99.90;;;;;;5476299;26;20322;-61
2024/04/25 04:53:29;;;;;;;11.88;7.78;;;4.20;99.90;;;;;;5474142;26;20230;-62
2024/04/25 04:55:57;;;;;;;10.50;7.35;;;4.20;99.90;;;;;;5473436;26;20259;-62
2024/04/25 04:58:26;;;;;;;15.18;7.80;;;4.20;99.90;;;;;;5474040;26;20750;-62
2024/04/25 05:00:54;;;;;;;11.45;6.88;;;4.30;99.90;;;;;;5473153;26;20270;-62
2024/04/25 05:03:22;;;;;;;15.32;7.75;;;4.30;99.90;;;;;;5473589;26;20850;-61
2024/04/25 05:05:53;;;;;;;10.55;7.22;;;4.40;99.90;;;;;;5477618;26;20215;-60
2024/04/25 05:08:22;;;;;;;12.48;7.80;;;4.40;99.90;;;;;;5478087;26;20254;-61
2024/04/25 05:10:51;;;;;;;10.77;7.80;;;4.50;99.90;;;;;;5479295;26;20336;-61
2024/04/25 05:13:19;;;;;;;7.72;6.97;;;4.60;99.90;;;;;;5475713;26;20268;-62
2024/04/25 05:15:48;;;;;;;11.60;7.35;;;4.60;99.90;;;;;;5477144;26;20219;-61
2024/04/25 05:18:16;;;;;;;10.35;7.43;;;4.70;99.90;;;;;;5478368;26;20279;-61
2024/04/25 05:20:45;;;;;;;16.70;7.50;;;4.70;99.90;;;;;;5477800;26;20262;-61
2024/04/25 05:23:16;;;;;;;12.18;6.90;;;4.70;99.90;;;;;;5472669;26;20227;-62
2024/04/25 05:25:44;;;;;;;8.60;7.20;;;4.80;99.90;;;;;;5457859;26;20266;-61
2024/04/25 05:28:13;;;;;;;8.25;6.43;;;4.80;99.90;;;;;;5458110;26;20740;-62
2024/04/25 05:30:41;;;;;;;12.55;8.73;;;4.80;99.90;;;;;;5458666;26;20258;-62
2024/04/25 05:33:10;;;;;;;12.75;7.70;;;4.80;99.90;;;;;;5457685;26;20319;-61
2024/04/25 05:35:38;;;;;;;11.35;7.95;;;4.80;99.90;;;;;;5457084;26;20268;-61
2024/04/25 05:38:07;;;;;;;8.55;6.78;;;4.80;99.90;;;;;;5462749;26;20259;-62
2024/04/25 05:40:37;;;;;;;11.18;6.75;;;4.80;99.90;;;;;;5465450;26;20314;-61
2024/04/25 05:43:06;;;;;;;7.15;5.88;;;4.80;99.90;;;;;;5461503;26;20239;-62
2024/04/25 05:45:35;;;;;;;8.75;6.40;;;4.80;99.90;;;;;;5466628;26;20225;-62
2024/04/25 05:48:03;;;;;;;6.88;6.22;;;4.90;99.90;;;;;;5471850;26;20289;-62
2024/04/25 05:50:31;;;;;;;7.40;6.70;;;4.90;99.90;;;;;;5467709;26;20213;-60
2024/04/25 05:53:02;;;;;;;7.63;6.63;;;4.90;99.90;;;;;;5463244;26;20814;-62
2024/04/25 05:55:30;;;;;;;10.05;7.40;;;4.90;99.90;;;;;;5464008;26;20308;-62
2024/04/25 05:58:01;;;;;;;7.15;6.43;;;4.90;99.90;;;;;;5466865;26;20283;-61
2024/04/25 06:00:30;;;;;;;9.75;7.35;;;4.90;99.90;;;;;;5465571;26;20264;-62
2024/04/25 06:02:58;;;;;;;10.02;8.50;;;4.90;99.90;;;;;;5465562;26;20625;-61
2024/04/25 06:05:26;;;;;;;9.63;7.70;;;4.90;99.90;;;;;;5461407;26;20257;-62
2024/04/25 06:07:55;;;;;;;10.23;7.63;;;4.90;99.90;;;;;;5457851;26;20309;-65
2024/04/25 06:10:23;;;;;;;9.50;7.82;;;5.00;99.90;;;;;;5457984;26;20272;-62
2024/04/25 06:12:51;;;;;;;11.23;7.68;;;5.00;99.90;;;;;;5457680;26;20264;-60
2024/04/25 06:15:22;;;;;;;10.70;8.20;;;5.10;99.90;;;;;;5456263;26;20223;-61
2024/04/25 06:17:51;;;;;;;10.63;7.80;;;5.10;99.90;;;;;;5455664;26;20304;-61
2024/04/25 06:20:20;;;;;;;7.90;6.70;;;5.10;99.90;;;;;;5456770;26;20436;-69
2024/04/25 06:22:49;;;;;;;9.40;7.70;;;5.20;99.90;;;;;;5456312;26;20250;-60
2024/04/25 06:25:17;;;;;;;9.48;7.82;;;5.20;99.90;;;;;;5456352;26;20346;-61
2024/04/25 06:27:46;;;;;;;10.65;7.50;;;5.10;99.90;;;;;;5455901;26;20337;-62
2024/04/25 06:30:16;;;;;;;8.40;7.55;;;5.20;99.90;;;;;;5458120;26;20212;-62
2024/04/25 06:32:47;;;;;;;10.75;8.40;;;5.20;99.90;;;;;;5457071;26;20241;-62
2024/04/25 06:35:15;;;;;;;9.48;8.40;;;5.20;99.90;;;;;;5455085;26;20225;-61
2024/04/25 06:37:44;;;;;;;12.80;7.60;;;5.30;99.90;;;;;;5456347;26;20312;-62
2024/04/25 06:40:12;;;;;;;9.40;8.50;;;5.30;99.90;;;;;;5458147;26;20272;-61
2024/04/25 06:42:41;;;;;;;9.50;8.13;;;5.30;99.90;;;;;;5457672;26;20322;-60
2024/04/25 06:45:09;;;;;;;11.00;9.48;;;5.30;99.90;;;;;;5457733;26;20270;-62
2024/04/25 06:47:38;;;;;;;13.57;8.43;;;5.40;99.90;;;;;;5458306;26;20223;-61
2024/04/25 06:50:09;;;;;;;10.77;8.77;;;5.40;99.90;;;;;;5456184;26;20343;-61
2024/04/25 06:52:38;;;;;;;12.00;9.13;;;5.50;99.90;;;;;;5456328;26;20761;-61
2024/04/25 06:55:08;;;;;;;13.30;9.07;;;5.60;99.90;;;;;;5456459;26;20217;-61
2024/04/25 06:57:36;;;;;;;12.48;9.65;;;5.70;99.90;;;;;;5456186;26;20231;-61
2024/04/25 07:00:05;;;;;;;11.90;8.48;;;5.80;99.90;;;;;;5455492;26;20669;-62
2024/04/25 07:02:33;;;;;;;10.43;9.40;;;5.80;99.90;;;;;;5456560;26;20258;-62
2024/04/25 07:05:02;;;;;;;9.13;8.13;;;5.80;99.90;;;;;;5455611;26;20224;-62
2024/04/25 07:07:33;;;;;;;12.13;9.90;;;5.90;99.90;;;;;;5464452;26;20295;-60
2024/04/25 07:10:01;;;;;;;10.90;9.77;;;5.90;99.90;;;;;;5461709;26;20210;-61
2024/04/25 07:12:32;;;;;;;11.68;10.48;;;5.80;99.90;;;;;;5456774;26;20265;-62
2024/04/25 07:15:04;;;;;;;10.15;8.98;;;5.90;99.90;;;;;;5456442;26;20213;-62
2024/04/25 07:17:33;;;;;;;11.25;9.05;;;5.90;99.90;;;;;;5455451;26;20210;-62
2024/04/25 07:20:02;;;;;;;15.88;9.82;;;6.00;99.90;;;;;;5455542;26;20782;-62
2024/04/25 07:22:33;;;;;;;12.38;10.57;;;6.00;99.90;;;;;;5454822;26;20328;-62
2024/04/25 07:25:02;;;;;;;13.73;9.85;;;6.00;99.90;;;;;;5455004;26;20224;-61
2024/04/25 07:27:31;;;;;;;10.82;8.73;;;6.00;99.90;;;;;;5455510;26;20282;-63
2024/04/25 07:30:00;;;;;;;12.75;10.45;;;6.00;99.90;;;;;;5455209;26;20259;-61
2024/04/25 07:32:29;;;;;;;11.60;8.50;;;5.90;99.90;;;;;;5454954;26;20680;-62
2024/04/25 07:34:57;;;;;;;13.50;11.00;;;5.90;99.90;;;;;;5455087;26;20212;-61
2024/04/25 07:37:26;;;;;;;13.93;11.02;;;5.90;99.90;;;;;;5454890;26;20223;-62
2024/04/25 07:39:57;;;;;;;13.50;10.18;;;5.90;99.90;;;;;;5454580;26;20323;-61
2024/04/25 07:42:25;;;;;;;13.38;9.95;;;5.90;99.90;;;;;;5454882;26;20247;-61
2024/04/25 07:44:56;;;;;;;15.13;10.77;;;5.90;99.90;;;;;;5454953;26;20217;-62
2024/04/25 07:47:24;;;;;;;14.88;11.32;;;5.90;99.90;;;;;;5454955;26;20209;-62
2024/04/25 07:49:54;;;;;;;12.07;9.45;;;5.90;99.90;;;;;;5454674;26;20268;-62
2024/04/25 07:52:23;;;;;;;12.95;9.00;;;5.90;99.90;;;;;;5454295;26;20248;-61
2024/04/25 07:54:51;;;;;;;13.68;9.75;;;6.00;99.90;;;;;;5454802;26;20212;-62
2024/04/25 07:57:22;;;;;;;13.32;8.90;;;6.00;99.90;;;;;;5454807;26;20689;-62
2024/04/25 07:59:53;;;;;;;13.55;9.65;;;6.10;99.90;;;;;;5455578;26;20292;-62
2024/04/25 08:02:21;;;;;;;13.55;9.70;;;6.20;99.90;;;;;;5455456;26;20572;-62
2024/04/25 08:04:50;;;;;;;10.73;9.05;;;6.40;99.90;;;;;;5455758;26;20325;-61
2024/04/25 08:07:19;;;;;;;13.18;9.88;;;6.50;99.90;;;;;;5455978;26;20217;-63
2024/04/25 08:09:47;;;;;;;13.00;9.25;;;6.70;99.90;;;;;;5454495;26;20214;-62
2024/04/25 08:12:16;;;;;;;19.65;10.00;;;6.80;99.90;;;;;;5454228;26;20274;-62
2024/04/25 08:14:47;;;;;;;9.70;8.25;;;6.90;99.90;;;;;;5454263;26;20722;-63
2024/04/25 08:17:15;;;;;;;10.10;8.10;;;7.00;99.90;;;;;;5456776;26;20213;-62
2024/04/25 08:19:44;;;;;;;10.93;8.13;;;7.10;99.90;;;;;;5463154;26;20214;-62
2024/04/25 08:22:12;;;;;;;14.52;8.10;;;7.30;99.90;;;;;;5463798;26;20277;-62
2024/04/25 08:24:40;;;;;;;11.15;9.15;;;7.60;99.90;;;;;;5458401;26;20221;-62
2024/04/25 08:27:09;;;;;;;8.52;7.35;;;8.00;99.90;;;;;;5458286;26;20288;-62
2024/04/25 08:29:37;;;;;;;8.23;7.43;;;8.10;99.90;;;;;;5457131;26;20753;-61
2024/04/25 08:32:08;;;;;;;9.25;7.78;;;8.20;99.90;;;;;;5456916;26;20304;-61
2024/04/25 08:34:37;;;;;;;10.88;8.00;;;8.30;99.90;;;;;;5460683;26;20202;-61
2024/04/25 08:37:06;;;;;;;8.60;6.60;;;8.40;99.90;;;;;;5460444;26;20796;-63
2024/04/25 08:39:35;;;;;;;7.90;6.85;;;8.40;99.90;;;;;;5459573;26;20451;-62
2024/04/25 08:42:05;;;;;;;10.15;7.85;;;8.20;99.90;;;;;;5456169;26;20307;-61
2024/04/25 08:44:35;;;;;;;9.35;6.93;;;8.10;99.90;;;;;;5455734;26;20258;-62
2024/04/25 08:47:04;;;;;;;7.50;6.80;;;8.10;99.90;;;;;;5456832;26;20222;-62
2024/04/25 08:49:37;;;;;;;7.40;5.95;;;8.10;99.90;;;;;;5454943;26;20270;-60
2024/04/25 08:52:07;;;;;;;6.60;5.70;;;8.20;99.90;;;;;;5454954;26;20226;-60
2024/04/25 08:54:37;;;;;;;6.97;5.80;;;8.40;99.90;;;;;;5457751;26;20280;-62
2024/04/25 08:57:05;;;;;;;7.13;6.45;;;8.60;99.90;;;;;;5456964;26;20789;-61
2024/04/25 08:59:33;;;;;;;6.20;5.60;;;8.80;99.90;;;;;;5459297;26;20266;-62
2024/04/25 09:02:02;;;;;;;7.03;6.07;;;9.00;99.90;;;;;;5457128;26;20515;-61
2024/04/25 09:04:35;;;;;;;6.63;5.70;;;9.30;99.90;;;;;;5457759;26;20470;-61
2024/04/25 09:07:11;;;;;;;6.73;5.80;;;9.50;99.90;;;;;;5457554;26;20547;-62
2024/04/25 09:09:39;;;;;;;4.80;4.40;;;9.50;99.90;;;;;;5456858;26;20499;-62
2024/04/25 09:12:08;;;;;;;5.30;4.80;;;9.60;99.90;;;;;;5456664;26;20815;-62
2024/04/25 09:14:37;;;;;;;6.10;5.17;;;9.60;99.90;;;;;;5456258;26;20507;-61
2024/04/25 09:17:05;;;;;;;6.30;5.40;;;9.50;99.90;;;;;;5456812;26;20455;-62
2024/04/25 09:19:37;;;;;;;6.40;5.40;;;9.50;99.90;;;;;;5456987;26;20557;-60
2024/04/25 09:22:05;;;;;;;5.63;5.13;;;9.40;99.90;;;;;;5458907;26;20456;-62
2024/04/25 09:24:34;;;;;;;5.93;4.77;;;9.10;99.90;;;;;;5458783;26;20514;-62
2024/04/25 09:27:03;;;;;;;5.30;4.40;;;8.90;99.90;;;;;;5457931;26;21016;-61
2024/04/25 09:29:32;;;;;;;3.72;3.40;;;8.60;99.90;;;;;;5458598;26;20496;-59
2024/04/25 09:32:02;;;;;;;4.90;4.40;;;8.40;99.90;;;;;;5457622;26;20545;-62
2024/04/25 09:34:31;;;;;;;4.90;4.50;;;8.00;99.90;;;;;;5457421;26;20310;-63
2024/04/25 09:37:03;;;;;;;5.25;4.25;;;7.70;99.90;;;;;;5457356;26;20221;-61
2024/04/25 09:39:32;;;;;;;5.90;4.90;;;7.40;99.90;;;;;;5458682;26;20654;-59
2024/04/25 09:42:01;;;;;;;3.88;2.72;;;7.10;99.90;;;;;;5466662;26;20569;-62
2024/04/25 09:44:30;;;;;;;2.53;1.98;;;7.00;99.90;;;;;;5467523;26;20229;-61
2024/04/25 09:47:01;;;;;;;6.60;2.45;;;6.70;99.90;;;;;;5466836;26;20405;-62
2024/04/25 09:49:34;;;;;;;3.65;1.80;;;6.30;99.90;;;;;;5464386;26;20290;-62
2024/04/25 09:52:10;;;;;;;2.53;1.60;;;6.00;99.90;;;;;;5463954;26;20260;-60
2024/04/25 09:54:43;;;;;;;2.60;1.60;;;5.80;99.90;;;;;;5461779;26;20216;-62
2024/04/25 09:57:16;;;;;;;2.20;1.40;;;5.60;99.90;;;;;;5459671;26;20295;-62
2024/04/25 09:59:52;;;;;;;2.50;1.80;;;5.60;99.90;;;;;;5456987;26;20225;-61
2024/04/25 10:02:22;;;;;;;5.68;2.00;;;5.60;99.90;;;;;;5456789;26;20247;-61
2024/04/25 10:04:53;;;;;;;9.05;2.15;;;5.60;99.90;;;;;;5456337;26;20298;-62
2024/04/25 10:07:25;;;;;;;5.55;2.30;;;5.80;99.90;;;;;;5456702;26;20204;-63
2024/04/25 10:09:55;;;;;;;4.63;2.35;;;6.00;99.90;;;;;;5458961;26;20279;-61
2024/04/25 10:12:24;;;;;;;2.38;1.52;;;6.20;99.90;;;;;;5464441;26;20314;-61
2024/04/25 10:14:57;;;;;;;7.07;1.80;;;6.40;99.90;;;;;;5463466;26;20217;-62
2024/04/25 10:17:26;;;;;;;1.90;1.60;;;6.60;99.90;;;;;;5460151;26;20261;-62
2024/04/25 10:19:55;;;;;;;2.00;1.60;;;6.80;99.90;;;;;;5458974;26;20228;-61
2024/04/25 10:22:27;;;;;;;3.28;1.65;;;7.00;99.90;;;;;;5457829;26;20276;-61
2024/04/25 10:24:58;;;;;;;3.17;1.90;;;7.20;99.90;;;;;;5457714;26;20344;-62
2024/04/25 10:27:29;;;;;;;4.28;1.65;;;7.40;99.90;;;;;;5455764;26;20218;-62
2024/04/25 10:30:03;;;;;;;4.82;2.95;;;7.60;99.90;;;;;;5456333;26;20206;-63
2024/04/25 10:32:32;;;;;;;4.93;2.28;;;7.90;99.90;;;;;;5456360;26;20614;-62
2024/04/25 10:35:01;;;;;;;2.92;1.50;;;8.10;99.90;;;;;;5455397;26;20213;-62
2024/04/25 10:37:34;;;;;;;3.47;1.73;;;8.40;99.90;;;;;;5456138;26;20558;-61
2024/04/25 10:40:02;;;;;;;3.45;1.88;;;8.70;99.90;;;;;;5456796;26;20245;-62
2024/04/25 10:42:30;;;;;;;2.73;1.30;;;9.00;99.90;;;;;;5456530;26;20227;-63
2024/04/25 10:44:59;;;;;;;3.97;2.03;;;9.10;99.90;;;;;;5455965;26;20460;-62
2024/04/25 10:47:28;;;;;;;3.43;2.00;;;9.20;99.90;;;;;;5455148;26;20211;-62
2024/04/25 10:49:57;;;;;;;2.23;1.77;;;9.30;99.90;;;;;;5455275;26;20457;-62
2024/04/25 10:52:26;;;;;;;4.50;2.20;;;9.40;99.90;;;;;;5455708;26;20472;-63
2024/04/25 10:54:57;;;;;;;2.63;2.30;;;9.50;99.90;;;;;;5455347;26;20455;-63
2024/04/25 10:57:30;;;;;;;4.60;3.03;;;9.50;99.90;;;;;;5456319;26;20599;-65
2024/04/25 11:00:00;;;;;;;3.60;1.80;;;9.50;99.90;;;;;;5457191;26;20440;-62
2024/04/25 11:02:35;;;;;;;8.07;2.50;;;9.50;99.90;;;;;;5462780;26;20472;-63
2024/04/25 11:05:04;;;;;;;2.43;1.80;;;9.50;99.90;;;;;;5470469;26;20444;-62
2024/04/25 11:07:32;;;;;;;3.37;2.80;;;9.50;99.90;;;;;;5470601;26;20447;-62
2024/04/25 11:10:03;;;;;;;2.53;1.70;;;9.50;99.90;;;;;;5468673;26;20517;-62
2024/04/25 11:12:34;;;;;;;2.70;1.70;;;9.60;99.90;;;;;;5458323;26;20573;-62
2024/04/25 11:15:02;;;;;;;4.40;2.33;;;9.70;99.90;;;;;;5457513;26;21068;-61
2024/04/25 11:17:31;;;;;;;2.23;2.00;;;9.90;98.30;;;;;;5456740;26;21097;-62
2024/04/25 11:19:59;;;;;;;10.30;2.50;;;10.10;95.50;;;;;;5456506;26;20519;-62
2024/04/25 11:22:28;;;;;;;4.97;2.37;;;10.20;93.30;;;;;;5456556;26;20599;-62
2024/04/25 11:24:56;;;;;;;5.63;2.93;;;10.30;92.60;;;;;;5457420;26;20567;-63
2024/04/25 11:27:27;;;;;;;4.03;2.50;;;10.40;92.80;;;;;;5456475;26;20459;-62
2024/04/25 11:29:59;;;;;;;4.83;3.23;;;10.60;92.30;;;;;;5457581;26;20531;-63
2024/04/25 11:32:27;;;;;;;4.70;2.40;;;10.60;92.00;;;;;;5456332;26;20470;-62
2024/04/25 11:34:56;;;;;;;2.63;1.80;;;10.50;91.20;;;;;;5455667;26;20448;-62
2024/04/25 11:37:24;;;;;;;2.20;2.00;;;10.30;90.00;;;;;;5456868;26;20476;-61
2024/04/25 11:39:54;;;;;;;3.47;2.27;;;10.20;90.90;;;;;;5455396;26;20503;-63
2024/04/25 11:42:27;;;;;;;2.27;1.30;;;10.30;90.50;;;;;;5456821;26;20467;-63
2024/04/25 11:44:55;;;;;;;2.80;1.70;;;10.40;81.20;;;;;;5456764;26;20493;-63
2024/04/25 11:47:25;;;;;;;3.10;1.20;;;10.40;76.80;;;;;;5456254;26;21112;-61
2024/04/25 11:49:54;;;;;;;3.37;1.43;;;10.30;74.30;;;;;;5457089;26;20495;-61
2024/04/25 11:52:22;;;;;;;3.80;1.37;;;10.30;75.10;;;;;;5456675;26;20476;-66
2024/04/25 11:54:51;;;;;;;3.07;1.70;;;10.50;74.30;;;;;;5456802;26;20450;-62
2024/04/25 11:57:19;;;;;;;6.63;4.00;;;10.70;70.80;;;;;;5457053;26;20456;-61
2024/04/25 11:59:50;;;;;;;4.10;1.97;;;11.00;67.70;;;;;;5456070;26;20494;-61
2024/04/25 12:02:19;;;;;;;6.03;1.80;;;11.30;64.20;;;;;;5456264;26;20467;-63
2024/04/25 12:04:47;;;;;;;2.70;1.40;;;11.50;61.80;;;;;;5455668;26;20540;-61
2024/04/25 12:07:16;;;;;;;2.90;1.60;;;11.60;59.40;;;;;;5455537;26;20457;-62
2024/04/25 12:09:44;;;;;;;5.03;1.63;;;11.80;58.60;;;;;;5454843;26;20508;-62
2024/04/25 12:12:12;;;;;;;3.37;1.43;;;12.10;58.30;;;;;;5454575;26;20473;-64
2024/04/25 12:14:41;;;;;;;2.60;1.20;;;12.50;58.10;;;;;;5455641;26;20541;-62
2024/04/25 12:17:12;;;;;;;4.60;1.47;;;13.00;56.60;;;;;;5455869;26;20464;-62
2024/04/25 12:19:41;;;;;;;3.80;1.47;;;13.10;54.80;;;;;;5460316;26;20441;-62
2024/04/25 12:22:09;;;;;;;4.00;1.73;;;13.10;55.00;;;;;;5458507;26;20541;-62
2024/04/25 12:24:37;;;;;;;8.27;2.10;;;13.40;54.70;;;;;;5456807;26;20810;-63
2024/04/25 12:27:06;;;;;;;4.63;1.80;;;13.50;54.30;;;;;;5455109;26;21087;-62
2024/04/25 12:29:34;;;;;;;2.53;1.40;;;13.30;53.80;;;;;;5454574;26;20506;-60
2024/04/25 12:32:04;;;;;;;4.50;1.60;;;12.90;54.40;;;;;;5455385;26;20537;-61
2024/04/25 12:34:35;;;;;;;5.87;1.67;;;12.70;55.00;;;;;;5457403;26;20555;-62
2024/04/25 12:37:03;;;;;;;4.60;1.50;;;12.60;54.80;;;;;;5458902;26;20568;-62
2024/04/25 12:39:34;;;;;;;2.10;1.33;;;12.50;55.20;;;;;;5457594;26;20568;-62
2024/04/25 12:42:02;;;;;;;8.90;2.00;;;12.50;54.60;;;;;;5457829;26;20463;-62
2024/04/25 12:44:31;;;;;;;2.10;1.40;;;12.40;53.70;;;;;;5458241;26;20516;-62
2024/04/25 12:46:59;;;;;;;2.20;1.47;;;12.30;54.00;;;;;;5457418;26;20453;-62
2024/04/25 12:49:30;;;;;;;7.43;1.97;;;12.30;54.30;;;;;;5457949;26;20572;-62
2024/04/25 12:52:02;;;;;;;3.37;1.63;;;12.30;54.00;;;;;;5457229;26;20529;-62
2024/04/25 12:54:30;;;;;;;3.23;2.30;;;12.50;54.20;;;;;;5457543;26;20520;-63
2024/04/25 12:56:59;;;;;;;2.53;1.60;;;12.80;53.90;;;;;;5457812;26;20506;-62
2024/04/25 12:59:27;;;;;;;11.53;1.57;;;13.00;52.80;;;;;;5457820;26;20458;-61
2024/04/25 13:01:56;;;;;;;2.40;1.43;;;12.90;51.80;;;;;;5457356;26;20466;-62
2024/04/25 13:04:25;;;;;;;4.17;1.70;;;12.70;51.00;;;;;;5456818;26;20465;-62